עמוד ראשי
METAR-TAF:

METAR-TAF

שדות תעופה :

Baltra Island, איי גלאפגוס, אקוודור

קו רוחב: 00-27-14S, קו אורך: 090-15-57W, גובה: 63מטר

תצפית מזג אוויר נוכחית

הדו"ח נערך לפני 33דקות, בשעה 15:00 UTC
רוח 7קשר מכיוון מזרח
טמפרטורת 28 צלסיוס
לחות 74%
לחץ 1013 hPa
ראות 10 קילומטר או יותר
עננים פזורים בגובה 2000רגל

METAR: SEGS 131500Z 10007KT 9999 SCT020 28/23 Q1013 RMK A2991

זמן: 09:33 (15:33 UTC)


TAF: חסר

תצפיות ותחזיות מזג אוויר לגבי יותר מ- 4,000 שדות תעופה ברחבי העולם. דוחות METAR ו- TAF.

התחנות הזמינות מסומנות בנקודות צהובות ואדומות על גבי המפה.

העבר את העכבר לנקודה הצבעונית על מנת לראות את שם התחנה.

לאחר מכן, לחץ כדי לראות את תוכן ואת תחזיות מזג האוויר.

כדי לשנות את המפה: לחץ על הכפתורים הירוקים עם הפלוס השחור כדי להתקרב; על הכפתור הירוק עם המקף כדי להתרחק; או בחיצים הירוקים למפות סמוכות.


METAR-TAF: